Terminal Aerodrome Forecast
Issued by NWS

Current Version | Previous Version | Text Only | Print | Product List | Glossary Off
Versions: 1 2 3 4 5 6 7 8 9 10 11 12 13 14 15 16 17

000
FTUS41 KILN 271100
TAFLUK
TAF
KLUK 271138Z 2712/2812 00000KT 4SM BR FEW080 SCT200
     FM271300 31005KT P6SM BKN150
     FM271700 33006KT P6SM VCTS BKN050CB
     FM272200 02005KT P6SM BKN100
     FM280500 05005KT 5SM BR SCT050 BKN200
     FM280900 00000KT 1 1/2SM BR BKN250=

USA.gov is the U.S. government's official web portal to all federal, state and local government web resources and services.